Time;durP1;ratioP1;P1;durP2;ratioP2;P2;SDS_P1;SDS_P2;PMS_P1;PMS_P2;Temp;Humidity;BMP_temperature;BMP_pressure;BME280_temperature;BME280_humidity;BME280_pressure;Samples;Min_cycle;Max_cycle;Signal;HPM_P1;HPM_P2
2023/12/21 00:01:48;;;;;;;3.00;2.00;;;7.50;99.90;;;6.70;100.00;99423.94;5035831;28;20222;-70
2023/12/21 00:04:18;;;;;;;3.87;2.00;;;7.60;99.90;;;6.70;100.00;99427.44;5035467;28;20209;-70
2023/12/21 00:06:46;;;;;;;2.10;2.00;;;7.60;99.90;;;6.71;100.00;99428.28;5035407;28;20211;-70
2023/12/21 00:09:14;;;;;;;2.40;1.93;;;7.60;99.90;;;6.72;100.00;99432.59;5035359;28;20301;-70
2023/12/21 00:11:42;;;;;;;1.90;1.70;;;7.60;99.90;;;6.78;100.00;99437.25;5035352;28;20293;-70
2023/12/21 00:14:10;;;;;;;2.00;1.80;;;7.60;99.90;;;6.75;100.00;99432.25;5035296;28;20237;-71
2023/12/21 00:16:38;;;;;;;2.20;2.00;;;7.60;99.90;;;6.75;100.00;99424.25;5035194;28;20322;-71
2023/12/21 00:19:06;;;;;;;2.07;1.93;;;7.60;99.90;;;6.79;100.00;99418.44;5035739;28;20227;-71
2023/12/21 00:21:36;;;;;;;1.80;1.70;;;7.60;99.90;;;6.79;100.00;99430.91;5035133;28;20210;-71
2023/12/21 00:24:05;;;;;;;1.83;1.73;;;7.60;99.90;;;6.81;100.00;99428.94;5035354;28;20218;-71
2023/12/21 00:26:33;;;;;;;1.97;1.83;;;7.60;99.90;;;6.80;100.00;99432.59;5035051;28;20287;-71
2023/12/21 00:29:01;;;;;;;1.90;1.80;;;7.60;99.90;;;6.81;100.00;99426.28;5034660;28;20322;-71
2023/12/21 00:31:29;;;;;;;1.77;1.67;;;7.70;99.90;;;6.83;100.00;99421.59;5034982;28;20654;-71
2023/12/21 00:33:57;;;;;;;1.80;1.70;;;7.70;99.90;;;6.84;100.00;99428.59;5034856;28;20668;-71
2023/12/21 00:36:26;;;;;;;2.50;1.90;;;7.70;99.90;;;6.82;100.00;99427.91;5034469;28;20227;-71
2023/12/21 00:38:55;;;;;;;1.93;1.70;;;7.70;99.90;;;6.84;100.00;99437.41;5034794;28;20263;-71
2023/12/21 00:41:23;;;;;;;2.80;2.00;;;7.70;99.90;;;6.85;100.00;99440.91;5034814;28;20294;-71
2023/12/21 00:43:51;;;;;;;1.80;1.50;;;7.70;99.90;;;6.85;100.00;99424.94;5034448;28;20664;-71
2023/12/21 00:46:20;;;;;;;1.80;1.70;;;7.70;99.90;;;6.84;100.00;99420.63;5034269;28;20644;-72
2023/12/21 00:48:48;;;;;;;1.87;1.70;;;7.70;99.90;;;6.83;100.00;99421.59;5034664;28;20223;-72
2023/12/21 00:51:16;;;;;;;1.90;1.70;;;7.70;99.90;;;6.86;100.00;99415.94;5034585;28;20269;-72
2023/12/21 00:53:44;;;;;;;2.17;1.30;;;7.70;99.90;;;6.87;100.00;99404.31;5034559;28;20215;-72
2023/12/21 00:56:14;;;;;;;1.50;1.40;;;7.70;99.90;;;6.85;100.00;99401.00;5034426;28;20206;-72
2023/12/21 00:58:42;;;;;;;1.73;1.50;;;7.70;99.90;;;6.84;100.00;99407.31;5034430;28;20309;-72
2023/12/21 01:01:10;;;;;;;1.60;1.50;;;7.70;99.90;;;6.88;100.00;99398.00;5034096;28;20730;-72
2023/12/21 01:03:39;;;;;;;1.50;1.40;;;7.70;99.90;;;6.85;100.00;99390.38;5034419;28;20649;-72
2023/12/21 01:06:07;;;;;;;1.60;1.50;;;7.70;99.90;;;6.86;100.00;99387.50;5034316;28;20203;-72
2023/12/21 01:08:35;;;;;;;1.47;1.37;;;7.70;99.90;;;6.87;100.00;99380.38;5034203;28;20361;-72
2023/12/21 01:11:04;;;;;;;2.17;1.20;;;7.70;99.90;;;6.87;100.00;99396.34;5034257;28;20214;-72
2023/12/21 01:13:33;;;;;;;1.43;1.30;;;7.70;99.90;;;6.87;100.00;99388.34;5034237;28;20213;-72
2023/12/21 01:16:01;;;;;;;1.30;1.20;;;7.70;99.90;;;6.89;100.00;99391.66;5034396;28;20206;-72
2023/12/21 01:18:30;;;;;;;2.10;1.37;;;7.70;99.90;;;6.90;100.00;99378.19;5033940;28;20231;-72
2023/12/21 01:20:58;;;;;;;2.13;1.30;;;7.70;99.90;;;6.90;100.00;99377.38;5034065;28;20210;-72
2023/12/21 01:23:27;;;;;;;1.40;1.30;;;7.70;99.90;;;6.90;100.00;99377.38;5033690;28;20747;-72
2023/12/21 01:25:55;;;;;;;1.40;1.30;;;7.70;99.90;;;6.89;100.00;99381.84;5033985;28;20230;-72
2023/12/21 01:28:23;;;;;;;1.20;1.10;;;7.70;99.90;;;6.89;100.00;99383.69;5033873;28;20305;-72
2023/12/21 01:30:52;;;;;;;1.23;1.13;;;7.70;99.90;;;6.93;100.00;99382.34;5033604;28;20631;-72
2023/12/21 01:33:21;;;;;;;1.33;1.10;;;7.70;99.90;;;6.93;100.00;99377.03;5033856;28;20279;-72
2023/12/21 01:35:49;;;;;;;2.40;1.10;;;7.80;99.90;;;6.91;100.00;99379.03;5033816;28;20213;-72
2023/12/21 01:38:17;;;;;;;1.17;1.00;;;7.70;99.90;;;6.91;100.00;99366.56;5034326;28;20234;-72
2023/12/21 01:40:45;;;;;;;1.23;1.13;;;7.70;99.90;;;6.92;100.00;99360.22;5033801;28;20240;-72
2023/12/21 01:43:14;;;;;;;1.80;1.20;;;7.70;99.90;;;6.93;100.00;99361.91;5033737;28;20207;-72
2023/12/21 01:45:42;;;;;;;1.10;1.00;;;7.70;99.90;;;6.94;100.00;99352.94;5033381;28;20707;-72
2023/12/21 01:48:12;;;;;;;1.00;1.00;;;7.80;99.90;;;6.93;100.00;99337.13;5033565;28;20315;-72
2023/12/21 01:50:42;;;;;;;1.00;1.00;;;7.80;99.90;;;6.92;100.00;99330.97;5033863;28;20226;-72
2023/12/21 01:53:13;;;;;;;1.00;1.00;;;7.80;99.90;;;6.94;100.00;99320.16;5033325;28;20559;-72
2023/12/21 01:55:43;;;;;;;1.20;1.10;;;7.80;99.90;;;6.93;100.00;99321.16;5033300;28;20203;-72
2023/12/21 01:58:12;;;;;;;1.13;1.10;;;7.70;99.90;;;6.93;100.00;99318.50;5032668;28;20231;-72
2023/12/21 02:00:40;;;;;;;1.00;1.00;;;7.80;99.90;;;6.95;100.00;99306.66;5033495;28;20215;-72
2023/12/21 02:03:10;;;;;;;1.10;1.00;;;7.80;99.90;;;6.93;100.00;99310.50;5033464;28;20214;-72
2023/12/21 02:05:38;;;;;;;1.50;1.10;;;7.80;99.90;;;6.93;100.00;99302.53;5033428;28;20301;-72
2023/12/21 02:08:07;;;;;;;1.20;1.10;;;7.80;99.90;;;6.93;100.00;99303.38;5033350;28;20233;-72
2023/12/21 02:10:39;;;;;;;1.70;1.20;;;7.80;99.90;;;6.96;100.00;99297.69;5033141;28;20736;-72
2023/12/21 02:13:07;;;;;;;2.30;1.30;;;7.80;99.90;;;6.96;100.00;99307.50;5033105;28;20614;-72
2023/12/21 02:15:35;;;;;;;1.67;1.13;;;7.80;99.90;;;6.96;100.00;99296.88;5033390;28;20206;-72
2023/12/21 02:18:08;;;;;;;1.30;1.20;;;7.80;99.90;;;6.97;100.00;99295.88;5033795;28;20334;-72
2023/12/21 02:20:41;;;;;;;1.40;1.30;;;7.80;99.90;;;6.98;100.00;99276.25;5033348;28;20191;-72
2023/12/21 02:23:12;;;;;;;1.30;1.20;;;7.80;99.90;;;6.97;100.00;99266.59;5033310;28;20219;-71
2023/12/21 02:25:42;;;;;;;1.63;1.40;;;7.80;99.90;;;6.98;100.00;99265.59;5033104;28;20724;-71
2023/12/21 02:28:10;;;;;;;1.70;1.00;;;7.80;99.90;;;7.00;100.00;99266.25;5032877;28;20724;-72
2023/12/21 02:30:38;;;;;;;1.43;1.30;;;7.80;99.90;;;6.99;100.00;99261.91;5033193;28;20211;-72
2023/12/21 02:33:07;;;;;;;1.37;1.27;;;7.80;99.90;;;7.01;100.00;99254.63;5033241;28;20210;-72
2023/12/21 02:35:35;;;;;;;1.80;1.37;;;7.80;99.90;;;7.01;100.00;99246.63;5033430;28;20215;-72
2023/12/21 02:38:04;;;;;;;1.27;1.17;;;7.80;99.90;;;7.03;100.00;99244.63;5033031;28;20272;-72
2023/12/21 02:40:32;;;;;;;1.30;1.20;;;7.90;99.90;;;7.04;100.00;99240.97;5033183;28;20299;-72
2023/12/21 02:43:01;;;;;;;1.40;1.30;;;7.80;99.90;;;7.03;100.00;99228.66;5033126;28;20210;-72
2023/12/21 02:45:29;;;;;;;1.20;1.10;;;7.80;99.90;;;7.06;100.00;99236.28;5033332;28;20210;-72
2023/12/21 02:47:58;;;;;;;1.30;1.20;;;7.90;99.90;;;7.05;100.00;99224.00;5032696;28;20718;-72
2023/12/21 02:50:26;;;;;;;1.00;1.00;;;7.90;99.90;;;7.05;100.00;99237.31;5032725;28;20241;-71
2023/12/21 02:52:54;;;;;;;1.63;1.03;;;7.90;99.90;;;7.06;100.00;99244.25;5032979;28;20309;-71
2023/12/21 02:55:22;;;;;;;1.00;1.00;;;7.90;99.90;;;7.04;100.00;99232.97;5032915;28;20671;-71
2023/12/21 02:57:50;;;;;;;1.10;1.00;;;7.90;99.90;;;7.09;100.00;99225.28;5032852;28;20238;-71
2023/12/21 03:00:20;;;;;;;1.03;1.03;;;7.90;99.90;;;7.08;100.00;99231.63;5032949;28;20345;-72
2023/12/21 03:02:48;;;;;;;1.10;1.10;;;7.90;99.90;;;7.10;100.00;99197.69;5032955;28;20211;-72
2023/12/21 03:05:17;;;;;;;1.57;0.93;;;7.90;99.90;;;7.10;100.00;99203.81;5032930;28;20574;-72
2023/12/21 03:07:45;;;;;;;0.87;0.87;;;7.90;99.90;;;7.11;100.00;99194.03;5032832;28;20226;-72
2023/12/21 03:10:13;;;;;;;0.90;0.90;;;7.90;99.90;;;7.10;100.00;99197.69;5036090;28;20203;-72
2023/12/21 03:12:41;;;;;;;1.40;0.93;;;7.90;99.90;;;7.10;100.00;99201.16;5036463;28;20239;-72
2023/12/21 03:15:10;;;;;;;1.23;1.13;;;7.90;99.90;;;7.12;100.00;99196.50;5036389;28;20209;-72
2023/12/21 03:17:40;;;;;;;0.90;0.90;;;7.90;99.90;;;7.12;100.00;99198.34;5035893;28;20852;-72
2023/12/21 03:20:10;;;;;;;1.13;0.90;;;7.90;99.90;;;7.12;100.00;99201.00;5036057;28;20578;-72
2023/12/21 03:22:38;;;;;;;0.83;0.83;;;7.90;99.90;;;7.13;100.00;99192.84;5036361;28;20202;-72
2023/12/21 03:25:07;;;;;;;0.90;0.90;;;8.00;99.90;;;7.12;100.00;99195.69;5036245;28;20202;-72
2023/12/21 03:27:36;;;;;;;1.70;0.77;;;7.90;99.90;;;7.14;100.00;99178.53;5036139;28;20264;-72
2023/12/21 03:30:05;;;;;;;1.00;0.97;;;7.90;99.90;;;7.17;100.00;99163.19;5036076;28;20580;-72
2023/12/21 03:32:33;;;;;;;0.83;0.80;;;8.00;99.90;;;7.14;100.00;99151.09;5036104;28;20257;-72
2023/12/21 03:35:03;;;;;;;1.07;0.97;;;8.00;99.90;;;7.13;100.00;99139.59;5036048;28;20207;-72
2023/12/21 03:37:31;;;;;;;0.80;0.80;;;7.90;99.90;;;7.17;100.00;99133.91;5035926;28;20644;-72
2023/12/21 03:39:59;;;;;;;0.90;0.90;;;8.00;99.90;;;7.16;100.00;99119.78;5035678;28;20218;-72
2023/12/21 03:42:28;;;;;;;0.90;0.90;;;8.00;99.90;;;7.17;100.00;99118.78;5035915;28;20207;-72
2023/12/21 03:44:56;;;;;;;0.90;0.90;;;8.00;99.90;;;7.19;100.00;99113.31;5035868;28;20203;-72
2023/12/21 03:47:24;;;;;;;0.90;0.90;;;8.00;99.90;;;7.19;100.00;99105.31;5035729;28;20321;-72
2023/12/21 03:49:52;;;;;;;0.97;0.97;;;8.00;99.90;;;7.18;100.00;99088.50;5035735;28;20211;-71
2023/12/21 03:52:21;;;;;;;0.93;0.80;;;8.00;99.90;;;7.17;100.00;99092.19;5035674;28;20218;-71
2023/12/21 03:54:49;;;;;;;0.73;0.73;;;8.00;99.90;;;7.20;100.00;99098.97;5035996;28;20241;-71
2023/12/21 03:57:18;;;;;;;0.87;0.87;;;8.00;99.90;;;7.20;100.00;99091.81;5035571;28;20222;-71
2023/12/21 03:59:46;;;;;;;0.90;0.90;;;8.00;99.90;;;7.20;100.00;99097.13;5035512;28;20317;-71
2023/12/21 04:02:14;;;;;;;0.93;0.80;;;8.00;99.90;;;7.22;100.00;99087.16;5035209;28;20673;-71
2023/12/21 04:04:42;;;;;;;0.90;0.90;;;8.10;99.90;;;7.24;100.00;99077.16;5035485;28;20203;-71
2023/12/21 04:07:10;;;;;;;1.00;1.00;;;8.00;99.90;;;7.25;100.00;99077.97;5035303;28;20230;-71
2023/12/21 04:09:40;;;;;;;0.80;0.80;;;8.10;99.90;;;7.25;100.00;99070.81;5035455;28;20231;-71
2023/12/21 04:12:09;;;;;;;1.77;0.90;;;8.10;99.90;;;7.26;100.00;99064.47;5035597;28;20202;-71
2023/12/21 04:14:37;;;;;;;1.73;0.80;;;8.10;99.90;;;7.27;100.00;99050.16;5035577;28;20217;-71
2023/12/21 04:17:05;;;;;;;1.00;0.90;;;8.10;99.90;;;7.31;100.00;99046.13;5035176;28;20623;-72
2023/12/21 04:19:33;;;;;;;0.80;0.80;;;8.10;99.90;;;7.32;100.00;99046.97;5035118;28;20276;-72
2023/12/21 04:22:01;;;;;;;0.80;0.80;;;8.20;99.90;;;7.33;100.00;99051.31;5034286;28;20668;-72
2023/12/21 04:24:30;;;;;;;1.10;0.80;;;8.20;99.90;;;7.35;100.00;99044.78;5034852;28;20746;-72
2023/12/21 04:26:59;;;;;;;0.93;0.90;;;8.20;99.90;;;7.37;100.00;99025.94;5034742;28;20668;-70
2023/12/21 04:29:27;;;;;;;0.90;0.90;;;8.20;99.90;;;7.38;100.00;99023.13;5035094;28;20233;-72
2023/12/21 04:31:56;;;;;;;1.03;1.03;;;8.20;99.90;;;7.38;100.00;99008.97;5035022;28;20211;-72
2023/12/21 04:34:25;;;;;;;1.10;1.10;;;8.20;99.90;;;7.38;100.00;99009.81;5034937;28;20210;-72
2023/12/21 04:36:53;;;;;;;1.20;1.10;;;8.20;99.90;;;7.38;100.00;99009.81;5034537;28;20554;-71
2023/12/21 04:39:21;;;;;;;1.00;1.00;;;8.20;99.90;;;7.41;100.00;98997.94;5034450;28;20593;-71
2023/12/21 04:41:51;;;;;;;1.00;1.00;;;8.20;99.90;;;7.43;100.00;98991.44;5034805;28;20230;-72
2023/12/21 04:44:20;;;;;;;2.13;1.20;;;8.30;99.90;;;7.44;100.00;98993.09;5034770;28;20552;-72
2023/12/21 04:46:49;;;;;;;1.30;1.20;;;8.30;99.90;;;7.45;100.00;99002.75;5034645;28;20241;-72
2023/12/21 04:49:20;;;;;;;1.30;1.20;;;8.30;99.90;;;7.45;100.00;98997.41;5034463;28;20211;-71
2023/12/21 04:51:49;;;;;;;1.77;1.30;;;8.30;99.90;;;7.45;100.00;98997.41;5034377;28;20641;-71
2023/12/21 04:54:17;;;;;;;1.43;1.33;;;8.30;99.90;;;7.44;100.00;99006.41;5034502;28;20670;-72
2023/12/21 04:56:45;;;;;;;1.40;1.30;;;8.20;99.90;;;7.45;100.00;98986.75;5034565;28;20234;-71
2023/12/21 04:59:13;;;;;;;1.10;1.10;;;8.30;99.90;;;7.45;100.00;98993.91;5034081;28;20318;-71
2023/12/21 05:01:42;;;;;;;1.43;1.33;;;8.30;99.90;;;7.46;100.00;98995.59;5034408;28;20302;-71
2023/12/21 05:04:10;;;;;;;1.27;1.20;;;8.30;99.90;;;7.44;100.00;98986.94;5034378;28;20219;-71
2023/12/21 05:06:39;;;;;;;1.40;1.30;;;8.20;99.90;;;7.47;100.00;98981.25;5034368;28;20290;-71
2023/12/21 05:09:07;;;;;;;1.47;1.20;;;8.30;99.90;;;7.47;100.00;98979.41;5034221;28;20227;-72
2023/12/21 05:11:35;;;;;;;1.93;1.20;;;8.30;99.90;;;7.46;100.00;98980.44;5034511;28;20208;-72
2023/12/21 05:14:03;;;;;;;1.00;0.90;;;8.30;99.90;;;7.49;100.00;98979.25;5033898;28;20238;-72
2023/12/21 05:16:32;;;;;;;0.90;0.90;;;8.30;99.90;;;7.49;100.00;98964.09;5033800;28;20668;-72
2023/12/21 05:19:01;;;;;;;1.00;1.00;;;8.30;99.90;;;7.49;100.00;98948.13;5034215;28;20230;-71
2023/12/21 05:21:29;;;;;;;1.17;1.07;;;8.30;99.90;;;7.49;100.00;98945.47;5033811;28;20238;-71
2023/12/21 05:23:57;;;;;;;0.90;0.90;;;8.30;99.90;;;7.57;100.00;98934.69;5034036;28;20305;-71
2023/12/21 05:26:26;;;;;;;1.00;1.00;;;8.50;99.90;;;7.58;100.00;98936.34;5033679;28;20649;-71
2023/12/21 05:28:57;;;;;;;0.80;0.80;;;8.40;99.90;;;7.58;100.00;98939.00;5033853;28;20720;-71
2023/12/21 05:31:26;;;;;;;0.93;0.93;;;8.40;99.90;;;7.59;100.00;98927.34;5033908;28;20202;-71
2023/12/21 05:33:54;;;;;;;0.90;0.90;;;8.50;99.90;;;7.61;100.00;98933.31;5033295;28;20229;-73
2023/12/21 05:36:24;;;;;;;0.90;0.90;;;8.40;99.90;;;7.64;100.00;98943.59;5033860;28;20214;-73
2023/12/21 05:38:54;;;;;;;0.83;0.83;;;8.50;99.90;;;7.67;100.00;98931.75;5033925;28;20572;-74
2023/12/21 05:41:22;;;;;;;1.10;1.00;;;8.50;99.90;;;7.69;100.00;98916.41;5033987;28;20211;-73
2023/12/21 05:43:51;;;;;;;1.03;1.00;;;8.50;99.90;;;7.71;100.00;98900.22;5033736;28;20213;-73
2023/12/21 05:46:19;;;;;;;0.90;0.90;;;8.60;99.90;;;7.71;100.00;98897.56;5033686;28;20207;-73
2023/12/21 05:48:48;;;;;;;0.80;0.80;;;8.60;99.90;;;7.71;100.00;98892.22;5033287;28;20230;-74
2023/12/21 05:51:17;;;;;;;1.83;1.00;;;8.60;99.90;;;7.71;100.00;98882.41;5033625;28;20211;-73
2023/12/21 05:53:46;;;;;;;0.90;0.90;;;8.50;99.90;;;7.71;100.00;98876.25;5033676;28;20230;-74
2023/12/21 05:56:14;;;;;;;1.00;1.00;;;8.50;99.90;;;7.75;100.00;98877.53;5033556;28;20202;-74
2023/12/21 05:58:42;;;;;;;1.03;1.00;;;8.50;99.90;;;7.72;100.00;98877.91;5033677;28;20230;-73
2023/12/21 06:01:11;;;;;;;0.90;0.90;;;8.50;99.90;;;7.73;100.00;98869.75;5033533;28;20206;-75
2023/12/21 06:03:39;;;;;;;1.00;1.00;;;8.50;99.90;;;7.70;100.00;98870.13;5033202;28;20211;-74
2023/12/21 06:06:07;;;;;;;1.30;1.20;;;8.50;99.90;;;7.73;100.00;98867.09;5033429;28;20206;-74
2023/12/21 06:08:36;;;;;;;1.00;0.90;;;8.50;99.90;;;7.72;100.00;98856.59;5033091;28;20712;-73
2023/12/21 06:11:06;;;;;;;0.90;0.90;;;8.50;99.90;;;7.70;100.00;98856.81;5033383;28;20290;-73
2023/12/21 06:13:35;;;;;;;1.13;0.70;;;8.50;99.90;;;7.71;100.00;98838.97;5033391;28;20298;-73
2023/12/21 06:16:03;;;;;;;0.90;0.90;;;8.50;99.90;;;7.72;100.00;98835.28;5033418;28;20206;-73
2023/12/21 06:18:32;;;;;;;0.70;0.70;;;8.50;99.90;;;7.71;100.00;98823.81;5033291;28;20230;-73
2023/12/21 06:21:00;;;;;;;0.70;0.70;;;8.50;99.90;;;7.74;100.00;98826.09;5033306;28;20284;-74
2023/12/21 06:23:28;;;;;;;0.87;0.87;;;8.60;99.90;;;7.74;100.00;98819.97;5033032;28;20257;-74
2023/12/21 06:25:56;;;;;;;1.13;0.90;;;8.60;99.90;;;7.75;100.00;98802.94;5033367;28;20213;-74
2023/12/21 06:28:26;;;;;;;1.00;0.80;;;8.50;99.90;;;7.77;100.00;98795.63;5033175;28;20230;-73
2023/12/21 06:30:54;;;;;;;0.80;0.80;;;8.50;99.90;;;7.76;100.00;98789.47;5033232;28;20210;-75
2023/12/21 06:33:23;;;;;;;0.70;0.70;;;8.60;99.90;;;7.75;100.00;98785.13;5033037;28;20242;-74
2023/12/21 06:35:51;;;;;;;0.70;0.63;;;8.60;99.90;;;7.76;100.00;98777.97;5032787;28;20572;-74
2023/12/21 06:38:19;;;;;;;0.70;0.70;;;8.60;99.90;;;7.77;100.00;98777.78;5033136;28;20258;-74
2023/12/21 06:40:47;;;;;;;1.37;1.27;;;8.60;99.90;;;7.77;100.00;98763.66;5033097;28;20258;-74
2023/12/21 06:43:16;;;;;;;0.70;0.70;;;8.60;99.90;;;7.77;100.00;98756.47;5033425;28;20207;-74
2023/12/21 06:45:47;;;;;;;1.00;0.90;;;8.60;99.90;;;7.77;100.00;98747.66;5036979;28;20214;-73
2023/12/21 06:48:15;;;;;;;0.87;0.87;;;8.60;99.90;;;7.77;100.00;98745.00;5036571;28;20230;-73
2023/12/21 06:50:45;;;;;;;0.73;0.73;;;8.60;99.90;;;7.75;100.00;98741.69;5036669;28;20215;-75
2023/12/21 06:53:15;;;;;;;1.07;0.80;;;8.60;99.90;;;7.74;100.00;98724.88;5036996;28;20233;-74
2023/12/21 06:55:44;;;;;;;0.67;0.67;;;8.50;99.90;;;7.77;100.00;98715.69;5036893;28;20195;-74
2023/12/21 06:58:13;;;;;;;0.90;0.90;;;8.60;99.90;;;7.80;100.00;98715.31;5036432;28;20597;-74
2023/12/21 07:00:41;;;;;;;1.00;1.00;;;8.60;99.90;;;7.81;100.00;98711.66;5036685;28;20242;-74
2023/12/21 07:03:11;;;;;;;0.97;0.80;;;8.60;99.90;;;7.78;100.00;98696.00;5036704;28;20206;-75
2023/12/21 07:05:39;;;;;;;2.13;0.87;;;8.60;99.90;;;7.80;100.00;98686.84;5036414;28;20210;-75
2023/12/21 07:08:07;;;;;;;0.93;0.80;;;8.60;99.90;;;7.79;100.00;98665.72;5036307;28;20806;-74
2023/12/21 07:10:35;;;;;;;0.80;0.80;;;8.60;99.90;;;7.79;100.00;98665.72;5036541;28;20198;-74
2023/12/21 07:13:04;;;;;;;1.10;0.90;;;8.60;99.90;;;7.77;100.00;98654.44;5036197;28;20207;-74
2023/12/21 07:15:32;;;;;;;0.97;0.97;;;8.60;99.90;;;7.80;100.00;98638.06;5036453;28;20441;-74
2023/12/21 07:18:00;;;;;;;1.50;1.00;;;8.60;99.90;;;7.81;100.00;98639.72;5036333;28;20227;-74
2023/12/21 07:20:30;;;;;;;0.90;0.90;;;8.60;99.90;;;7.82;100.00;98623.53;5036301;28;20226;-74
2023/12/21 07:22:58;;;;;;;0.90;0.90;;;8.60;99.90;;;7.84;100.00;98615.34;5036296;28;20293;-75
2023/12/21 07:25:26;;;;;;;1.10;1.10;;;8.60;99.90;;;7.82;100.00;98612.88;5036885;28;20257;-74
2023/12/21 07:27:55;;;;;;;1.30;1.03;;;8.60;99.90;;;7.81;100.00;98597.91;5036149;28;20231;-74
2023/12/21 07:30:23;;;;;;;1.13;1.03;;;8.60;99.90;;;7.82;100.00;98585.41;5036187;28;20209;-74
2023/12/21 07:32:51;;;;;;;1.37;1.27;;;8.60;99.90;;;7.84;100.00;98567.41;5035826;28;20681;-75
2023/12/21 07:35:19;;;;;;;1.17;1.17;;;8.60;99.90;;;7.82;100.00;98558.75;5036069;28;20207;-74
2023/12/21 07:37:48;;;;;;;1.30;1.20;;;8.60;99.90;;;7.87;100.00;98553.69;5035994;28;20261;-74
2023/12/21 07:40:17;;;;;;;1.37;1.27;;;8.70;99.90;;;7.86;100.00;98538.72;5035891;28;20262;-74
2023/12/21 07:42:46;;;;;;;1.37;1.27;;;8.70;99.90;;;7.92;100.00;98532.59;5035935;28;20211;-74
2023/12/21 07:45:14;;;;;;;1.50;1.40;;;8.70;99.90;;;7.97;100.00;98519.50;5035896;28;20206;-74
2023/12/21 07:47:42;;;;;;;1.40;1.30;;;8.80;99.90;;;7.95;100.00;98502.88;5036045;28;20321;-74
2023/12/21 07:50:11;;;;;;;1.50;1.40;;;8.70;99.90;;;8.00;100.00;98487.13;5035577;28;20691;-74
2023/12/21 07:52:39;;;;;;;1.50;1.40;;;8.80;99.90;;;8.01;100.00;98478.13;5035789;28;20297;-74
2023/12/21 07:55:09;;;;;;;1.53;1.43;;;8.80;99.90;;;8.00;100.00;98473.81;5034302;28;20597;-74
2023/12/21 07:57:38;;;;;;;1.40;1.30;;;8.80;99.90;;;7.99;100.00;98472.16;5035710;28;20301;-74
2023/12/21 08:00:09;;;;;;;1.67;1.40;;;8.80;99.90;;;7.99;100.00;98474.81;5035220;28;20572;-74
2023/12/21 08:02:44;;;;;;;1.50;1.40;;;8.80;99.90;;;7.98;100.00;98457.22;5035608;28;20188;-73
2023/12/21 08:05:13;;;;;;;1.47;1.37;;;8.80;99.90;;;7.98;100.00;98454.56;5035619;28;20190;-74
2023/12/21 08:07:41;;;;;;;2.90;1.60;;;8.80;99.90;;;7.97;100.00;98444.91;5035495;28;20277;-74
2023/12/21 08:10:11;;;;;;;1.60;1.30;;;8.70;99.90;;;7.97;100.00;98442.25;5035468;28;20301;-76
2023/12/21 08:12:39;;;;;;;1.40;1.30;;;8.70;99.90;;;7.98;100.00;98425.25;5035128;28;20669;-74
2023/12/21 08:15:09;;;;;;;2.50;1.50;;;8.80;99.90;;;7.96;100.00;98421.94;5035376;28;20216;-74
2023/12/21 08:17:38;;;;;;;2.50;1.50;;;8.80;99.90;;;7.98;100.00;98430.56;5035762;28;20277;-71
2023/12/21 08:20:08;;;;;;;1.30;1.20;;;8.80;99.90;;;8.03;100.00;98428.13;5035190;28;20207;-71
2023/12/21 08:22:37;;;;;;;1.30;1.20;;;8.80;99.90;;;8.01;100.00;98428.31;5035448;28;20246;-70
2023/12/21 08:25:06;;;;;;;1.30;1.27;;;8.80;99.90;;;8.07;100.00;98414.19;5035203;28;20213;-70
2023/12/21 08:27:37;;;;;;;2.27;1.40;;;8.90;99.90;;;8.05;100.00;98418.06;5035107;28;20230;-71
2023/12/21 08:30:07;;;;;;;1.60;1.20;;;8.80;99.90;;;8.04;100.00;98397.78;5035086;28;20207;-71
2023/12/21 08:32:35;;;;;;;1.73;1.63;;;8.80;99.90;;;8.05;100.00;98399.41;5035035;28;20229;-72
2023/12/21 08:35:04;;;;;;;1.30;1.20;;;8.90;99.90;;;8.06;100.00;98403.72;5034669;28;20214;-71
2023/12/21 08:37:33;;;;;;;1.50;1.20;;;8.80;99.90;;;8.06;100.00;98393.06;5034557;28;20227;-71
2023/12/21 08:40:01;;;;;;;2.40;1.20;;;8.80;99.90;;;8.06;100.00;98393.91;5034598;28;20219;-71
2023/12/21 08:42:30;;;;;;;1.13;1.10;;;8.80;99.90;;;8.06;100.00;98401.06;5034744;28;20223;-71
2023/12/21 08:45:04;;;;;;;1.20;1.10;;;8.80;99.90;;;8.06;100.00;98417.06;5034780;28;20297;-71
2023/12/21 08:47:40;;;;;;;1.50;1.03;;;8.90;99.90;;;8.06;100.00;98411.72;5034714;28;20227;-70
2023/12/21 08:50:10;;;;;;;1.30;1.20;;;8.80;99.90;;;8.06;100.00;98395.75;5034337;28;20696;-71
2023/12/21 08:52:38;;;;;;;1.60;1.10;;;8.80;99.90;;;8.06;100.00;98385.06;5034628;28;20207;-71
2023/12/21 08:55:09;;;;;;;2.23;1.30;;;8.80;99.90;;;8.05;100.00;98373.59;5034621;28;20206;-71
2023/12/21 08:57:37;;;;;;;1.00;1.00;;;8.80;99.90;;;8.04;100.00;98368.47;5034805;28;20313;-71
2023/12/21 09:00:12;;;;;;;1.00;1.00;;;8.80;99.90;;;8.03;100.00;98373.00;5034487;28;20290;-71
2023/12/21 09:02:41;;;;;;;1.23;1.13;;;8.80;99.90;;;8.02;100.00;98374.00;5034442;28;20213;-71
2023/12/21 09:05:12;;;;;;;2.13;1.40;;;8.80;99.90;;;8.02;100.00;98363.34;5034407;28;20297;-71
2023/12/21 09:07:40;;;;;;;1.20;1.10;;;8.80;99.90;;;8.05;100.00;98354.13;5034026;28;20231;-70
2023/12/21 09:10:09;;;;;;;1.43;1.20;;;8.80;99.90;;;8.05;100.00;98357.59;5034288;28;20238;-71
2023/12/21 09:12:38;;;;;;;2.00;1.07;;;8.80;99.90;;;8.06;100.00;98350.44;5033996;28;20203;-70
2023/12/21 09:15:09;;;;;;;1.30;1.20;;;8.80;99.90;;;8.05;100.00;98335.47;5033901;28;20690;-71
2023/12/21 09:17:37;;;;;;;2.63;1.30;;;8.80;99.90;;;8.05;100.00;98338.94;5033833;28;20669;-71
2023/12/21 09:20:08;;;;;;;1.53;1.07;;;8.80;99.90;;;8.05;100.00;98330.13;5034114;28;20213;-71
2023/12/21 09:22:37;;;;;;;1.20;1.10;;;8.80;99.90;;;8.06;100.00;98326.44;5034116;28;20574;-68
2023/12/21 09:25:07;;;;;;;2.50;1.33;;;8.90;99.90;;;8.08;100.00;98319.09;5033690;28;20214;-68
2023/12/21 09:27:35;;;;;;;2.07;1.10;;;8.90;99.90;;;8.10;100.00;98317.84;5033968;28;20238;-68
2023/12/21 09:30:05;;;;;;;3.10;1.13;;;8.90;99.90;;;8.11;100.00;98295.53;5033998;28;20306;-67
2023/12/21 09:32:35;;;;;;;2.20;1.10;;;8.90;99.90;;;8.13;100.00;98295.31;5033619;28;20716;-67
2023/12/21 09:35:03;;;;;;;2.27;1.20;;;9.00;99.90;;;8.14;100.00;98291.63;5033646;28;20672;-67
2023/12/21 09:37:32;;;;;;;1.10;1.00;;;8.90;99.90;;;8.17;100.00;98277.88;5033810;28;20318;-67
2023/12/21 09:40:00;;;;;;;0.90;0.90;;;9.00;99.90;;;8.18;100.00;98257.38;5033814;28;20210;-67
2023/12/21 09:42:29;;;;;;;1.80;1.00;;;9.00;99.90;;;8.21;100.00;98265.78;5033700;28;20254;-67
2023/12/21 09:44:57;;;;;;;5.23;1.70;;;9.00;99.90;;;8.22;100.00;98256.75;5033745;28;20297;-67
2023/12/21 09:47:29;;;;;;;8.07;1.90;;;9.00;99.90;;;8.23;100.00;98247.75;5033633;28;20237;-67
2023/12/21 09:49:59;;;;;;;1.17;1.10;;;9.00;99.90;;;8.25;100.00;98243.03;5033540;28;20727;-67
2023/12/21 09:52:28;;;;;;;3.30;1.00;;;9.00;99.90;;;8.25;100.00;98235.03;5034718;28;20199;-68
2023/12/21 09:54:58;;;;;;;1.80;1.00;;;9.00;99.90;;;8.29;100.00;98236.28;5033275;28;20257;-67
2023/12/21 09:57:27;;;;;;;1.60;1.20;;;9.10;99.90;;;8.32;100.00;98232.41;5033560;28;20258;-67
2023/12/21 09:59:58;;;;;;;1.33;1.13;;;9.10;99.90;;;8.32;100.00;98209.19;5033611;28;20217;-67
2023/12/21 10:02:30;;;;;;;2.70;1.30;;;9.10;99.90;;;8.34;100.00;98211.69;5034122;28;20294;-67
2023/12/21 10:05:03;;;;;;;2.37;1.10;;;9.10;99.90;;;8.41;100.00;98194.66;5033542;28;20276;-67
2023/12/21 10:07:33;;;;;;;1.20;1.10;;;9.20;99.90;;;8.40;100.00;98185.00;5033462;28;20226;-68
2023/12/21 10:10:02;;;;;;;3.30;1.30;;;9.20;99.90;;;8.41;100.00;98178.66;5033524;28;20198;-68
2023/12/21 10:12:30;;;;;;;3.83;1.20;;;9.20;99.90;;;8.40;100.00;98171.66;5033456;28;20237;-68
2023/12/21 10:14:59;;;;;;;1.27;1.13;;;9.20;99.90;;;8.40;100.00;98161.00;5033410;28;20253;-68
2023/12/21 10:17:27;;;;;;;1.23;1.00;;;9.20;99.90;;;8.39;100.00;98159.34;5033009;28;20234;-68
2023/12/21 10:19:56;;;;;;;2.13;0.93;;;9.20;99.90;;;8.42;100.00;98158.97;5036538;28;20217;-68
2023/12/21 10:22:26;;;;;;;7.47;1.40;;;9.20;99.90;;;8.44;100.00;98146.25;5037397;28;20310;-68
2023/12/21 10:24:55;;;;;;;1.10;0.90;;;9.20;99.90;;;8.46;100.00;98130.84;5037541;28;20202;-68
2023/12/21 10:27:25;;;;;;;2.10;0.90;;;9.20;99.90;;;8.46;100.00;98133.50;5037322;28;20666;-68
2023/12/21 10:29:54;;;;;;;2.03;1.00;;;9.30;99.90;;;8.48;100.00;98138.63;5037361;28;20310;-68
2023/12/21 10:32:22;;;;;;;3.23;0.97;;;9.30;99.90;;;8.48;100.00;98122.63;5037022;28;20679;-68